createdAt,value
2016-12-09T00:00:20.653Z,963.73
2016-12-09T00:01:20.637Z,963.76
2016-12-09T00:02:20.622Z,963.66
2016-12-09T00:03:20.606Z,963.68
2016-12-09T00:04:20.591Z,963.65
2016-12-09T00:05:20.574Z,963.68
2016-12-09T00:06:20.559Z,963.69
2016-12-09T00:07:20.595Z,963.68
2016-12-09T00:08:20.669Z,963.62
2016-12-09T00:09:20.514Z,963.58
2016-12-09T00:10:20.497Z,963.63
2016-12-09T00:11:20.481Z,963.64
2016-12-09T00:12:20.465Z,963.57
2016-12-09T00:13:20.449Z,963.58
2016-12-09T00:14:20.435Z,963.55
2016-12-09T00:15:20.417Z,963.58
2016-12-09T00:16:20.402Z,963.54
2016-12-09T00:17:20.387Z,963.56
2016-12-09T00:18:20.372Z,963.63
2016-12-09T00:19:20.354Z,963.73
2016-12-09T00:20:20.340Z,963.69
2016-12-09T00:21:20.326Z,963.74
2016-12-09T00:22:20.309Z,963.78
2016-12-09T00:23:20.292Z,963.76
2016-12-09T00:24:20.278Z,963.76
2016-12-09T00:25:20.262Z,963.74
2016-12-09T00:26:20.244Z,963.74
2016-12-09T00:27:20.230Z,963.64
2016-12-09T00:28:20.214Z,963.76
2016-12-09T00:29:20.199Z,963.77
2016-12-09T00:30:20.183Z,963.84
2016-12-09T00:31:20.166Z,963.82
2016-12-09T00:32:20.151Z,963.85
2016-12-09T00:33:20.135Z,963.87
2016-12-09T00:34:20.119Z,963.84
2016-12-09T00:35:20.105Z,963.84
2016-12-09T00:36:20.089Z,963.92
2016-12-09T00:37:20.071Z,963.88
2016-12-09T00:38:20.056Z,963.94
2016-12-09T00:39:20.040Z,963.94
2016-12-09T00:40:20.026Z,963.94
2016-12-09T00:41:20.009Z,964
2016-12-09T00:42:19.994Z,964.06
2016-12-09T00:43:19.978Z,964.07
2016-12-09T00:44:19.961Z,964.12
2016-12-09T00:45:19.946Z,964.15
2016-12-09T00:46:19.931Z,964.25
2016-12-09T00:47:19.915Z,964.22
2016-12-09T00:48:19.898Z,964.22
2016-12-09T00:49:19.884Z,964.23
2016-12-09T00:50:19.867Z,964.23
2016-12-09T00:51:19.853Z,964.27
2016-12-09T00:52:19.836Z,964.26
2016-12-09T00:53:19.821Z,964.36
2016-12-09T00:54:19.805Z,964.39
2016-12-09T00:55:19.789Z,964.38
2016-12-09T00:56:19.772Z,964.39
2016-12-09T00:57:19.759Z,964.41
2016-12-09T00:58:19.742Z,964.46
2016-12-09T00:59:19.726Z,964.44
2016-12-09T01:00:19.710Z,964.49
2016-12-09T01:01:19.696Z,964.51
2016-12-09T01:02:19.679Z,964.54
2016-12-09T01:03:19.664Z,964.51
2016-12-09T01:04:19.647Z,964.58
2016-12-09T01:05:19.633Z,964.51
2016-12-09T01:06:19.616Z,964.49
2016-12-09T01:07:19.600Z,964.49
2016-12-09T01:08:19.584Z,964.46
2016-12-09T01:09:19.724Z,964.4
2016-12-09T01:10:19.553Z,964.26
2016-12-09T01:11:19.537Z,964.29
2016-12-09T01:12:19.523Z,964.24
2016-12-09T01:13:19.506Z,964.23
2016-12-09T01:14:19.489Z,964.13
2016-12-09T01:15:19.475Z,964.06
2016-12-09T01:16:19.458Z,964.13
2016-12-09T01:17:19.445Z,964.12
2016-12-09T01:18:19.426Z,964.12
2016-12-09T01:19:19.412Z,964.08
2016-12-09T01:20:19.394Z,964.12
2016-12-09T01:21:19.393Z,964.22
2016-12-09T01:22:19.363Z,964.22
2016-12-09T01:23:19.348Z,964.21
2016-12-09T01:24:19.332Z,964.17
2016-12-09T01:25:19.316Z,964.24
2016-12-09T01:26:19.300Z,964.17
2016-12-09T01:27:19.286Z,964.19
2016-12-09T01:28:19.267Z,964.2
2016-12-09T01:29:19.253Z,964.21
2016-12-09T01:30:19.237Z,964.18
2016-12-09T01:31:19.222Z,964.17
2016-12-09T01:32:19.206Z,964.31
2016-12-09T01:33:19.191Z,964.31
2016-12-09T01:34:19.176Z,964.33
2016-12-09T01:35:19.160Z,964.36
2016-12-09T01:36:19.144Z,964.34
2016-12-09T01:37:19.128Z,964.35
2016-12-09T01:38:19.113Z,964.33
2016-12-09T01:39:19.098Z,964.38
2016-12-09T01:40:19.083Z,964.31
2016-12-09T01:41:19.067Z,964.3
2016-12-09T01:42:19.053Z,964.35
2016-12-09T01:43:19.035Z,964.3
2016-12-09T01:44:19.022Z,964.34
2016-12-09T01:45:19.005Z,964.22
2016-12-09T01:46:18.989Z,964.19
2016-12-09T01:47:18.974Z,964.25
2016-12-09T01:48:18.961Z,964.2
2016-12-09T01:49:18.945Z,964.2
2016-12-09T01:50:18.928Z,964.18
2016-12-09T01:51:18.912Z,964.2
2016-12-09T01:52:18.899Z,964.18
2016-12-09T01:53:18.883Z,964.12
2016-12-09T01:54:18.867Z,964.07
2016-12-09T01:55:18.852Z,964.11
2016-12-09T01:56:18.838Z,964.14
2016-12-09T01:57:18.821Z,964.1
2016-12-09T01:58:18.806Z,964.05
2016-12-09T01:59:18.791Z,964.01
2016-12-09T02:00:18.777Z,963.96
2016-12-09T02:01:18.762Z,964.1
2016-12-09T02:02:18.746Z,964.14
2016-12-09T02:03:18.732Z,964.01
2016-12-09T02:04:18.717Z,964.02
2016-12-09T02:05:18.702Z,964.12
2016-12-09T02:06:18.686Z,964.15
2016-12-09T02:07:18.672Z,964.12
2016-12-09T02:08:18.656Z,964.14
2016-12-09T02:09:18.640Z,964.17
2016-12-09T02:10:18.626Z,964.18
2016-12-09T02:11:18.612Z,964.19
2016-12-09T02:12:18.595Z,964.19
2016-12-09T02:13:18.581Z,964.31
2016-12-09T02:14:18.565Z,964.17
2016-12-09T02:15:18.551Z,964.15
2016-12-09T02:16:18.535Z,964.13
2016-12-09T02:17:18.521Z,964.17
2016-12-09T02:18:18.505Z,964.12
2016-12-09T02:19:18.491Z,964.1
2016-12-09T02:20:18.475Z,964.09
2016-12-09T02:21:18.460Z,964.03
2016-12-09T02:22:18.445Z,964.09
2016-12-09T02:23:18.431Z,964.04
2016-12-09T02:24:18.416Z,964
2016-12-09T02:25:18.401Z,964.06
2016-12-09T02:26:18.385Z,963.96
2016-12-09T02:27:18.370Z,963.98
2016-12-09T02:28:18.356Z,963.95
2016-12-09T02:29:18.341Z,964.03
2016-12-09T02:30:18.326Z,964.04
2016-12-09T02:31:18.311Z,964.07
2016-12-09T02:32:18.296Z,964.04
2016-12-09T02:33:18.282Z,964.12
2016-12-09T02:34:18.266Z,964.06
2016-12-09T02:35:18.252Z,964.05
2016-12-09T02:36:18.236Z,964.09
2016-12-09T02:37:18.223Z,964.04
2016-12-09T02:38:18.207Z,964.12
2016-12-09T02:39:18.193Z,964.09
2016-12-09T02:40:18.178Z,964.08
2016-12-09T02:41:18.162Z,964.04
2016-12-09T02:42:18.149Z,964.09
2016-12-09T02:43:18.134Z,964.05
2016-12-09T02:44:18.121Z,964.07
2016-12-09T02:45:18.103Z,964.06
2016-12-09T02:46:18.091Z,964.04
2016-12-09T02:47:18.076Z,964.01
2016-12-09T02:48:18.062Z,964.04
2016-12-09T02:49:18.046Z,964.03
2016-12-09T02:50:18.032Z,963.91
2016-12-09T02:51:18.018Z,963.97
2016-12-09T02:52:18.003Z,963.99
2016-12-09T02:53:17.988Z,964
2016-12-09T02:54:17.974Z,964
2016-12-09T02:55:17.959Z,963.99
2016-12-09T02:56:17.944Z,963.97
2016-12-09T02:57:17.929Z,963.94
2016-12-09T02:58:17.915Z,964
2016-12-09T02:59:17.902Z,963.96
2016-12-09T03:00:17.885Z,963.86
2016-12-09T03:01:17.873Z,963.98
2016-12-09T03:02:17.856Z,964.02
2016-12-09T03:03:17.843Z,964.01
2016-12-09T03:04:17.827Z,964.08
2016-12-09T03:05:17.815Z,963.99
2016-12-09T03:06:17.800Z,964
2016-12-09T03:07:17.785Z,963.91
2016-12-09T03:08:17.770Z,964.03
2016-12-09T03:09:17.757Z,963.89
2016-12-09T03:10:17.743Z,963.97
2016-12-09T03:11:17.728Z,963.87
2016-12-09T03:12:17.714Z,963.94
2016-12-09T03:13:17.701Z,963.94
2016-12-09T03:14:17.685Z,963.93
2016-12-09T03:15:17.670Z,963.78
2016-12-09T03:16:17.657Z,963.87
2016-12-09T03:17:17.642Z,963.89
2016-12-09T03:18:17.627Z,963.92
2016-12-09T03:19:17.613Z,963.91
2016-12-09T03:20:17.598Z,963.95
2016-12-09T03:21:17.583Z,963.9
2016-12-09T03:22:17.571Z,963.92
2016-12-09T03:23:17.556Z,963.94
2016-12-09T03:24:17.541Z,963.89
2016-12-09T03:25:17.528Z,963.88
2016-12-09T03:26:17.513Z,963.82
2016-12-09T03:27:17.499Z,963.85
2016-12-09T03:28:17.485Z,963.88
2016-12-09T03:29:17.471Z,963.92
2016-12-09T03:30:17.456Z,963.93
2016-12-09T03:31:17.443Z,963.91
2016-12-09T03:32:17.427Z,964
2016-12-09T03:33:17.414Z,963.94
2016-12-09T03:34:17.400Z,963.94
2016-12-09T03:35:17.384Z,963.95
2016-12-09T03:36:17.371Z,963.95
2016-12-09T03:37:17.357Z,963.87
2016-12-09T03:38:17.344Z,963.95
2016-12-09T03:39:17.330Z,963.94
2016-12-09T03:40:17.315Z,963.99
2016-12-09T03:41:17.300Z,963.93
2016-12-09T03:42:17.286Z,963.94
2016-12-09T03:43:17.272Z,963.95
2016-12-09T03:44:17.258Z,963.91
2016-12-09T03:45:17.245Z,963.92
2016-12-09T03:46:17.236Z,963.92
2016-12-09T03:47:17.217Z,963.93
2016-12-09T03:48:17.203Z,963.94
2016-12-09T03:49:17.189Z,963.97
2016-12-09T03:50:17.176Z,964.04
2016-12-09T03:51:17.160Z,964
2016-12-09T03:52:17.147Z,963.9
2016-12-09T03:53:17.134Z,963.97
2016-12-09T03:54:17.122Z,963.93
2016-12-09T03:55:17.105Z,963.86
2016-12-09T03:56:17.092Z,963.81
2016-12-09T03:57:17.078Z,963.88
2016-12-09T03:58:17.063Z,963.84
2016-12-09T03:59:17.049Z,963.84
2016-12-09T04:00:17.035Z,963.79
2016-12-09T04:01:17.021Z,963.78
2016-12-09T04:02:17.006Z,963.77
2016-12-09T04:03:16.993Z,963.8
2016-12-09T04:04:16.979Z,963.85
2016-12-09T04:05:16.962Z,963.73
2016-12-09T04:06:16.951Z,963.8
2016-12-09T04:07:16.936Z,963.89
2016-12-09T04:08:16.923Z,963.89
2016-12-09T04:09:16.908Z,963.83
2016-12-09T04:10:16.895Z,963.86
2016-12-09T04:11:16.885Z,963.85
2016-12-09T04:12:16.868Z,963.83
2016-12-09T04:13:16.853Z,963.81
2016-12-09T04:14:16.841Z,963.84
2016-12-09T04:15:16.826Z,963.83
2016-12-09T04:16:16.811Z,963.78
2016-12-09T04:17:16.797Z,963.9
2016-12-09T04:18:16.785Z,963.82
2016-12-09T04:19:16.771Z,963.85
2016-12-09T04:20:16.756Z,963.85
2016-12-09T04:21:16.742Z,963.85
2016-12-09T04:22:16.729Z,963.84
2016-12-09T04:23:16.715Z,963.91
2016-12-09T04:24:16.700Z,963.79
2016-12-09T04:25:16.725Z,963.81
2016-12-09T04:26:16.712Z,963.82
2016-12-09T04:27:16.700Z,963.78
2016-12-09T04:28:16.683Z,963.79
2016-12-09T04:29:16.670Z,963.8
2016-12-09T04:30:16.657Z,963.76
2016-12-09T04:31:16.643Z,963.8
2016-12-09T04:32:16.629Z,963.83
2016-12-09T04:33:16.615Z,963.76
2016-12-09T04:34:16.600Z,963.83
2016-12-09T04:35:16.586Z,963.8
2016-12-09T04:36:16.573Z,963.8
2016-12-09T04:37:16.559Z,963.79
2016-12-09T04:38:16.544Z,963.8
2016-12-09T04:39:16.531Z,963.81
2016-12-09T04:40:16.517Z,963.8
2016-12-09T04:41:16.502Z,963.82
2016-12-09T04:42:16.487Z,963.83
2016-12-09T04:43:16.473Z,963.91
2016-12-09T04:44:16.460Z,963.87
2016-12-09T04:45:16.446Z,963.85
2016-12-09T04:46:16.432Z,963.82
2016-12-09T04:47:16.417Z,963.77
2016-12-09T04:48:16.404Z,963.75
2016-12-09T04:49:16.388Z,963.8
2016-12-09T04:50:16.375Z,963.78
2016-12-09T04:51:16.359Z,963.8
2016-12-09T04:52:16.347Z,963.77
2016-12-09T04:53:16.332Z,963.77
2016-12-09T04:54:16.318Z,963.78
2016-12-09T04:55:16.303Z,963.79
2016-12-09T04:56:16.290Z,963.76
2016-12-09T04:57:16.276Z,963.76
2016-12-09T04:58:16.261Z,963.78
2016-12-09T04:59:16.246Z,963.82
2016-12-09T05:00:16.232Z,963.85
2016-12-09T05:01:16.218Z,963.82
2016-12-09T05:02:16.204Z,963.81
2016-12-09T05:03:16.190Z,963.8
2016-12-09T05:04:16.175Z,963.83
2016-12-09T05:05:16.161Z,963.85
2016-12-09T05:06:16.147Z,963.82
2016-12-09T05:07:16.132Z,963.81
2016-12-09T05:08:16.118Z,963.79
2016-12-09T05:09:16.104Z,963.8
2016-12-09T05:10:16.090Z,963.82
2016-12-09T05:11:16.075Z,963.81
2016-12-09T05:12:16.060Z,963.84
2016-12-09T05:13:16.047Z,963.83
2016-12-09T05:14:16.033Z,963.84
2016-12-09T05:15:16.019Z,963.79
2016-12-09T05:16:16.004Z,963.81
2016-12-09T05:17:15.990Z,963.74
2016-12-09T05:18:15.975Z,963.77
2016-12-09T05:19:15.959Z,963.83
2016-12-09T05:20:15.946Z,963.79
2016-12-09T05:21:15.931Z,963.8
2016-12-09T05:22:15.916Z,963.81
2016-12-09T05:23:15.905Z,963.78
2016-12-09T05:24:15.889Z,963.79
2016-12-09T05:25:15.875Z,963.8
2016-12-09T05:26:15.860Z,963.76
2016-12-09T05:27:15.846Z,963.83
2016-12-09T05:28:15.832Z,963.83
2016-12-09T05:29:15.816Z,963.85
2016-12-09T05:30:15.802Z,963.85
2016-12-09T05:31:15.788Z,963.86
2016-12-09T05:32:15.775Z,963.84
2016-12-09T05:33:15.759Z,963.85
2016-12-09T05:34:15.744Z,963.87
2016-12-09T05:35:15.730Z,963.87
2016-12-09T05:36:15.717Z,963.76
2016-12-09T05:37:15.702Z,963.82
2016-12-09T05:38:15.687Z,963.8
2016-12-09T05:39:15.674Z,963.84
2016-12-09T05:40:15.660Z,963.79
2016-12-09T05:41:15.644Z,963.77
2016-12-09T05:42:15.632Z,963.79
2016-12-09T05:43:15.616Z,963.78
2016-12-09T05:44:15.600Z,963.82
2016-12-09T05:45:15.589Z,963.79
2016-12-09T05:46:15.573Z,963.81
2016-12-09T05:47:15.558Z,963.85
2016-12-09T05:49:15.529Z,963.9
2016-12-09T05:50:15.514Z,963.98
2016-12-09T05:51:15.502Z,963.95
2016-12-09T05:52:15.484Z,963.98
2016-12-09T05:53:15.471Z,963.98
2016-12-09T05:54:15.458Z,963.96
2016-12-09T05:55:15.441Z,963.97
2016-12-09T05:56:15.428Z,963.95
2016-12-09T05:57:15.413Z,963.92
2016-12-09T05:58:15.400Z,964.02
2016-12-09T05:59:15.384Z,963.89
2016-12-09T06:00:15.370Z,963.97
2016-12-09T06:01:15.355Z,964.02
2016-12-09T06:02:15.341Z,964.07
2016-12-09T06:03:15.325Z,963.99
2016-12-09T06:04:15.311Z,963.99
2016-12-09T06:05:15.297Z,963.98
2016-12-09T06:06:15.283Z,964
2016-12-09T06:07:15.268Z,964.07
2016-12-09T06:08:15.254Z,964.04
2016-12-09T06:09:15.241Z,964.12
2016-12-09T06:10:15.223Z,964.06
2016-12-09T06:11:15.210Z,964.06
2016-12-09T06:12:15.195Z,964.11
2016-12-09T06:13:15.194Z,964.07
2016-12-09T06:14:15.166Z,964.11
2016-12-09T06:15:15.153Z,964.09
2016-12-09T06:16:15.139Z,964.09
2016-12-09T06:17:15.125Z,964.11
2016-12-09T06:18:15.110Z,964.11
2016-12-09T06:19:15.095Z,964.1
2016-12-09T06:20:15.080Z,964.06
2016-12-09T06:21:15.065Z,964.13
2016-12-09T06:22:15.050Z,964.16
2016-12-09T06:23:15.035Z,964.1
2016-12-09T06:24:15.021Z,964.13
2016-12-09T06:25:15.007Z,964.06
2016-12-09T06:26:14.992Z,964.06
2016-12-09T06:27:14.979Z,964.16
2016-12-09T06:28:14.962Z,964.21
2016-12-09T06:29:14.949Z,964.22
2016-12-09T06:30:14.935Z,964.19
2016-12-09T06:31:14.920Z,964.27
2016-12-09T06:32:14.904Z,964.26
2016-12-09T06:33:14.889Z,964.23
2016-12-09T06:34:14.875Z,964.29
2016-12-09T06:35:14.859Z,964.28
2016-12-09T06:36:14.845Z,964.23
2016-12-09T06:37:14.831Z,964.21
2016-12-09T06:38:14.817Z,964.31
2016-12-09T06:39:14.801Z,964.22
2016-12-09T06:40:14.787Z,964.25
2016-12-09T06:41:14.773Z,964.29
2016-12-09T06:42:14.759Z,964.29
2016-12-09T06:43:14.743Z,964.29
2016-12-09T06:44:14.729Z,964.27
2016-12-09T06:45:14.715Z,964.23
2016-12-09T06:46:14.699Z,964.25
2016-12-09T06:47:14.685Z,964.2
2016-12-09T06:48:14.671Z,964.2
2016-12-09T06:49:14.656Z,964.18
2016-12-09T06:50:14.641Z,964.19
2016-12-09T06:51:14.626Z,964.2
2016-12-09T06:52:14.611Z,964.22
2016-12-09T06:53:14.598Z,964.21
2016-12-09T06:54:14.583Z,964.17
2016-12-09T06:55:14.568Z,964.17
2016-12-09T06:56:14.554Z,964.17
2016-12-09T06:57:14.537Z,964.15
2016-12-09T06:58:14.522Z,964.17
2016-12-09T06:59:14.510Z,964.19
2016-12-09T07:00:14.495Z,964.21
2016-12-09T07:01:14.480Z,964.21
2016-12-09T07:02:14.464Z,964.17
2016-12-09T07:03:14.451Z,964.18
2016-12-09T07:04:14.437Z,964.22
2016-12-09T07:05:14.421Z,964.23
2016-12-09T07:06:14.407Z,964.26
2016-12-09T07:07:14.393Z,964.19
2016-12-09T07:08:14.376Z,964.24
2016-12-09T07:09:14.363Z,964.22
2016-12-09T07:10:14.348Z,964.22
2016-12-09T07:11:14.334Z,964.27
2016-12-09T07:12:14.318Z,964.24
2016-12-09T07:13:14.305Z,964.27
2016-12-09T07:14:14.290Z,964.26
2016-12-09T07:15:14.276Z,964.22
2016-12-09T07:16:14.261Z,964.22
2016-12-09T07:17:14.245Z,964.24
2016-12-09T07:18:14.231Z,964.24
2016-12-09T07:19:14.215Z,964.18
2016-12-09T07:20:14.202Z,964.21
2016-12-09T07:21:14.187Z,964.25
2016-12-09T07:22:14.173Z,964.22
2016-12-09T07:23:14.158Z,964.23
2016-12-09T07:24:14.142Z,964.23
2016-12-09T07:25:14.128Z,964.25
2016-12-09T07:26:14.114Z,964.3
2016-12-09T07:27:14.099Z,964.3
2016-12-09T07:28:14.085Z,964.27
2016-12-09T07:29:14.071Z,964.27
2016-12-09T07:30:14.055Z,964.29
2016-12-09T07:31:14.040Z,964.29
2016-12-09T07:32:14.025Z,964.31
2016-12-09T07:33:14.012Z,964.24
2016-12-09T07:34:13.996Z,964.28
2016-12-09T07:35:13.981Z,964.33
2016-12-09T07:36:13.967Z,964.31
2016-12-09T07:37:13.954Z,964.31
2016-12-09T07:38:13.937Z,964.38
2016-12-09T07:39:13.924Z,964.38
2016-12-09T07:40:13.908Z,964.3
2016-12-09T07:41:13.893Z,964.35
2016-12-09T07:42:13.879Z,964.38
2016-12-09T07:43:13.866Z,964.34
2016-12-09T07:44:13.850Z,964.35
2016-12-09T07:45:13.835Z,964.34
2016-12-09T07:46:13.821Z,964.36
2016-12-09T07:47:13.807Z,964.31
2016-12-09T07:48:13.792Z,964.31
2016-12-09T07:49:13.777Z,964.27
2016-12-09T07:50:13.763Z,964.28
2016-12-09T07:51:13.748Z,964.31
2016-12-09T07:52:13.734Z,964.32
2016-12-09T07:53:13.719Z,964.29
2016-12-09T07:54:13.704Z,964.34
2016-12-09T07:55:13.690Z,964.31
2016-12-09T07:56:13.677Z,964.34
2016-12-09T07:57:13.661Z,964.36
2016-12-09T07:58:13.646Z,964.5
2016-12-09T07:59:13.630Z,964.51
2016-12-09T08:00:13.616Z,964.48
2016-12-09T08:01:13.602Z,964.47
2016-12-09T08:02:13.588Z,964.56
2016-12-09T08:03:13.572Z,964.52
2016-12-09T08:04:13.558Z,964.51
2016-12-09T08:05:13.544Z,964.5
2016-12-09T08:06:13.530Z,964.54
2016-12-09T08:07:13.514Z,964.52
2016-12-09T08:08:13.499Z,964.51
2016-12-09T08:09:13.486Z,964.66
2016-12-09T08:10:13.470Z,964.65
2016-12-09T08:11:13.455Z,964.63
2016-12-09T08:12:13.446Z,964.55
2016-12-09T08:13:13.428Z,964.58
2016-12-09T08:14:13.411Z,964.58
2016-12-09T08:15:13.398Z,964.6
2016-12-09T08:16:13.383Z,964.59
2016-12-09T08:17:13.370Z,964.64
2016-12-09T08:18:13.354Z,964.61
2016-12-09T08:19:13.339Z,964.63
2016-12-09T08:20:13.325Z,964.64
2016-12-09T08:21:13.310Z,964.62
2016-12-09T08:22:13.295Z,964.66
2016-12-09T08:23:13.282Z,964.68
2016-12-09T08:24:13.267Z,964.72
2016-12-09T08:25:13.252Z,964.78
2016-12-09T08:26:13.238Z,964.72
2016-12-09T08:27:13.223Z,964.78
2016-12-09T08:28:13.210Z,964.81
2016-12-09T08:29:13.193Z,964.81
2016-12-09T08:30:13.180Z,964.76
2016-12-09T08:31:13.165Z,964.73
2016-12-09T08:32:13.151Z,964.8
2016-12-09T08:33:13.136Z,964.84
2016-12-09T08:34:13.121Z,964.77
2016-12-09T08:35:13.107Z,964.81
2016-12-09T08:36:13.092Z,964.76
2016-12-09T08:37:13.077Z,964.79
2016-12-09T08:38:13.064Z,964.85
2016-12-09T08:39:13.049Z,964.88
2016-12-09T08:40:13.042Z,964.79
2016-12-09T08:41:13.020Z,964.83
2016-12-09T08:42:13.006Z,964.9
2016-12-09T08:43:12.991Z,964.81
2016-12-09T08:44:12.977Z,964.89
2016-12-09T08:45:12.962Z,964.88
2016-12-09T08:46:12.948Z,964.93
2016-12-09T08:47:12.933Z,964.93
2016-12-09T08:48:12.919Z,964.96
2016-12-09T08:49:12.904Z,964.92
2016-12-09T08:50:12.890Z,964.88
2016-12-09T08:51:12.875Z,964.9
2016-12-09T08:52:12.859Z,964.92
2016-12-09T08:53:12.844Z,964.91
2016-12-09T08:54:12.830Z,964.92
2016-12-09T08:55:12.816Z,964.9
2016-12-09T08:56:12.802Z,964.87
2016-12-09T08:57:12.788Z,964.9
2016-12-09T08:58:12.772Z,964.9
2016-12-09T08:59:12.758Z,964.92
2016-12-09T09:00:12.743Z,964.95
2016-12-09T09:01:12.730Z,964.91
2016-12-09T09:02:12.714Z,964.95
2016-12-09T09:03:12.700Z,964.92
2016-12-09T09:04:12.684Z,964.94
2016-12-09T09:05:12.670Z,964.98
2016-12-09T09:06:12.657Z,965
2016-12-09T09:07:12.641Z,965.01
2016-12-09T09:08:12.628Z,964.96
2016-12-09T09:09:12.611Z,964.98
2016-12-09T09:10:12.598Z,965
2016-12-09T09:11:12.589Z,964.97
2016-12-09T09:12:12.570Z,964.99
2016-12-09T09:13:12.553Z,965
2016-12-09T09:14:12.540Z,964.96
2016-12-09T09:15:12.525Z,965.01
2016-12-09T09:16:12.531Z,965.01
2016-12-09T09:17:12.496Z,965.02
2016-12-09T09:18:12.483Z,965.07
2016-12-09T09:19:12.468Z,964.98
2016-12-09T09:20:12.453Z,965.03
2016-12-09T09:21:12.438Z,965.06
2016-12-09T09:22:12.428Z,965.13
2016-12-09T09:23:12.411Z,965.08
2016-12-09T09:24:12.396Z,965.04
2016-12-09T09:25:12.382Z,965
2016-12-09T09:26:12.369Z,965.06
2016-12-09T09:27:12.355Z,965.03
2016-12-09T09:28:12.340Z,965.03
2016-12-09T09:29:12.324Z,964.97
2016-12-09T09:30:12.311Z,965.01
2016-12-09T09:31:12.300Z,964.98
2016-12-09T09:32:12.282Z,964.99
2016-12-09T09:33:12.269Z,965
2016-12-09T09:34:12.256Z,965.01
2016-12-09T09:35:12.239Z,965.02
2016-12-09T09:36:12.227Z,965
2016-12-09T09:37:12.211Z,964.99
2016-12-09T09:38:12.195Z,964.98
2016-12-09T09:39:12.183Z,965.05
2016-12-09T09:40:12.169Z,965.04
2016-12-09T09:41:12.155Z,965.01
2016-12-09T09:42:12.138Z,965.02
2016-12-09T09:43:12.125Z,965.08
2016-12-09T09:44:12.112Z,965.01
2016-12-09T09:45:12.098Z,965.03
2016-12-09T09:46:12.082Z,964.97
2016-12-09T09:47:12.070Z,964.94
2016-12-09T09:48:12.055Z,964.9
2016-12-09T09:49:12.041Z,964.98
2016-12-09T09:50:12.029Z,964.9
2016-12-09T09:51:12.013Z,964.9
2016-12-09T09:52:12.003Z,964.92
2016-12-09T09:53:11.985Z,964.9
2016-12-09T09:54:11.971Z,964.95
2016-12-09T09:55:11.957Z,964.9
2016-12-09T09:56:11.942Z,964.84
2016-12-09T09:57:11.929Z,964.9
2016-12-09T09:58:11.915Z,964.83
2016-12-09T09:59:11.901Z,964.9
2016-12-09T10:00:11.887Z,964.91
2016-12-09T10:01:11.873Z,964.86
2016-12-09T10:02:11.859Z,964.87
2016-12-09T10:03:11.846Z,964.78
2016-12-09T10:04:11.832Z,964.88
2016-12-09T10:05:11.818Z,964.85
2016-12-09T10:06:11.803Z,964.83
2016-12-09T10:07:11.789Z,964.84
2016-12-09T10:08:11.775Z,964.79
2016-12-09T10:09:11.762Z,964.8
2016-12-09T10:10:11.747Z,964.79
2016-12-09T10:11:11.734Z,964.79
2016-12-09T10:12:11.720Z,964.8
2016-12-09T10:13:11.705Z,964.77
2016-12-09T10:14:11.692Z,964.8
2016-12-09T10:15:11.678Z,964.79
2016-12-09T10:16:11.663Z,964.85
2016-12-09T10:17:11.651Z,964.85
2016-12-09T10:18:11.636Z,964.82
2016-12-09T10:19:11.623Z,964.86
2016-12-09T10:20:11.608Z,964.85
2016-12-09T10:21:11.596Z,964.87
2016-12-09T10:22:11.582Z,964.89
2016-12-09T10:23:11.567Z,964.88
2016-12-09T10:24:11.554Z,964.93
2016-12-09T10:25:11.540Z,964.88
2016-12-09T10:26:11.526Z,964.95
2016-12-09T10:27:11.512Z,964.93
2016-12-09T10:28:11.499Z,964.91
2016-12-09T10:29:11.484Z,964.93
2016-12-09T10:30:11.471Z,964.94
2016-12-09T10:31:11.457Z,964.91
2016-12-09T10:32:11.443Z,964.93
2016-12-09T10:33:11.429Z,964.88
2016-12-09T10:34:11.418Z,964.85
2016-12-09T10:35:11.403Z,964.84
2016-12-09T10:36:11.388Z,964.78
2016-12-09T10:37:11.375Z,964.83
2016-12-09T10:38:11.361Z,964.85
2016-12-09T10:39:11.347Z,964.85
2016-12-09T10:40:11.333Z,964.87
2016-12-09T10:41:11.319Z,964.85
2016-12-09T10:42:11.305Z,964.92
2016-12-09T10:43:11.292Z,964.94
2016-12-09T10:44:11.477Z,964.91
2016-12-09T10:45:11.265Z,964.91
2016-12-09T10:46:11.250Z,964.88
2016-12-09T10:47:11.237Z,964.89
2016-12-09T10:48:11.224Z,964.85
2016-12-09T10:49:11.209Z,964.85
2016-12-09T10:50:11.196Z,964.84
2016-12-09T10:51:11.181Z,964.86
2016-12-09T10:52:11.167Z,964.91
2016-12-09T10:53:11.155Z,964.88
2016-12-09T10:54:11.141Z,964.95
2016-12-09T10:55:11.126Z,964.95
2016-12-09T10:56:11.113Z,964.93
2016-12-09T10:57:11.100Z,964.92
2016-12-09T10:58:11.086Z,964.96
2016-12-09T10:59:11.073Z,964.98
2016-12-09T11:00:11.059Z,964.97
2016-12-09T11:01:11.046Z,964.98
2016-12-09T11:02:11.031Z,964.94
2016-12-09T11:03:11.021Z,964.89
2016-12-09T11:04:11.005Z,964.97
2016-12-09T11:05:10.990Z,965.03
2016-12-09T11:06:10.978Z,965.02
2016-12-09T11:07:10.963Z,964.99
2016-12-09T11:08:10.950Z,964.94
2016-12-09T11:09:10.935Z,964.98
2016-12-09T11:10:10.922Z,965.02
2016-12-09T11:11:10.908Z,965.04
2016-12-09T11:12:10.898Z,964.97
2016-12-09T11:13:10.882Z,964.98
2016-12-09T11:14:10.868Z,965.04
2016-12-09T11:15:10.856Z,965.02
2016-12-09T11:16:10.842Z,965.01
2016-12-09T11:17:10.827Z,964.92
2016-12-09T11:18:10.814Z,964.94
2016-12-09T11:19:10.803Z,964.95
2016-12-09T11:20:10.787Z,964.95
2016-12-09T11:21:10.774Z,964.93
2016-12-09T11:22:10.760Z,964.89
2016-12-09T11:23:10.747Z,964.9
2016-12-09T11:24:10.732Z,964.93
2016-12-09T11:25:10.720Z,964.91
2016-12-09T11:26:10.706Z,964.89
2016-12-09T11:27:10.694Z,964.89
2016-12-09T11:28:10.679Z,964.8
2016-12-09T11:29:10.666Z,964.79
2016-12-09T11:30:10.653Z,964.83
2016-12-09T11:31:10.639Z,964.73
2016-12-09T11:32:10.626Z,964.79
2016-12-09T11:33:10.614Z,964.85
2016-12-09T11:34:10.600Z,964.83
2016-12-09T11:35:10.587Z,964.77
2016-12-09T11:36:10.573Z,964.79
2016-12-09T11:37:10.560Z,964.83
2016-12-09T11:38:10.548Z,964.77
2016-12-09T11:39:10.534Z,964.87
2016-12-09T11:40:10.520Z,964.86
2016-12-09T11:41:10.509Z,964.83
2016-12-09T11:42:10.497Z,964.81
2016-12-09T11:43:10.483Z,964.75
2016-12-09T11:44:10.468Z,964.74
2016-12-09T11:45:10.456Z,964.86
2016-12-09T11:46:10.443Z,964.85
2016-12-09T11:47:10.429Z,964.79
2016-12-09T11:48:10.416Z,964.75
2016-12-09T11:49:10.404Z,964.82
2016-12-09T11:50:10.390Z,964.82
2016-12-09T11:51:10.378Z,964.81
2016-12-09T11:52:10.365Z,964.78
2016-12-09T11:53:10.352Z,964.75
2016-12-09T11:54:10.338Z,964.77
2016-12-09T11:55:10.325Z,964.73
2016-12-09T11:56:10.313Z,964.76
2016-12-09T11:57:10.298Z,964.8
2016-12-09T11:58:10.287Z,964.8
2016-12-09T11:59:10.274Z,964.85
2016-12-09T12:00:10.260Z,964.88
2016-12-09T12:01:10.248Z,964.93
2016-12-09T12:02:10.235Z,964.95
2016-12-09T12:03:10.222Z,965.01
2016-12-09T12:04:10.208Z,965.01
2016-12-09T12:05:10.195Z,965.04
2016-12-09T12:06:10.183Z,965.05
2016-12-09T12:07:10.170Z,965.04
2016-12-09T12:08:10.155Z,964.95
2016-12-09T12:09:10.144Z,965.06
2016-12-09T12:10:10.131Z,965.11
2016-12-09T12:11:10.119Z,965.03
2016-12-09T12:12:10.105Z,965.1
2016-12-09T12:13:10.092Z,965.06
2016-12-09T12:14:10.078Z,965.07
2016-12-09T12:15:10.065Z,965.09
2016-12-09T12:16:10.052Z,965.04
2016-12-09T12:17:10.039Z,965.04
2016-12-09T12:18:10.031Z,965
2016-12-09T12:19:10.013Z,965.02
2016-12-09T12:20:10.000Z,964.99
2016-12-09T12:21:09.987Z,965.02
2016-12-09T12:22:09.974Z,965.05
2016-12-09T12:23:09.960Z,964.99
2016-12-09T12:24:09.947Z,965.03
2016-12-09T12:25:09.934Z,965.04
2016-12-09T12:26:09.921Z,965.06
2016-12-09T12:27:09.908Z,965.09
2016-12-09T12:28:09.894Z,965.06
2016-12-09T12:29:09.881Z,965.08
2016-12-09T12:30:09.867Z,965.1
2016-12-09T12:31:09.855Z,965.14
2016-12-09T12:32:09.841Z,965.11